sensor_id;sensor_type;location;lat;lon;timestamp;P1;durP1;ratioP1;P2;durP2;ratioP2
15061;SDS011;7630;50.306;8.566;2023-09-12T00:01:08;58.77;;;43.63;;
15061;SDS011;7630;50.306;8.566;2023-09-12T00:05:10;34.13;;;26.03;;
15061;SDS011;7630;50.306;8.566;2023-09-12T00:09:11;25.23;;;14.20;;
15061;SDS011;7630;50.306;8.566;2023-09-12T00:13:13;17.23;;;14.23;;
15061;SDS011;7630;50.306;8.566;2023-09-12T00:17:14;18.53;;;13.67;;
15061;SDS011;7630;50.306;8.566;2023-09-12T00:21:15;14.10;;;12.50;;
15061;SDS011;7630;50.306;8.566;2023-09-12T00:25:16;17.13;;;14.40;;
15061;SDS011;7630;50.306;8.566;2023-09-12T00:29:17;20.50;;;13.63;;
15061;SDS011;7630;50.306;8.566;2023-09-12T00:33:18;21.87;;;14.13;;
15061;SDS011;7630;50.306;8.566;2023-09-12T00:37:20;21.17;;;15.10;;
15061;SDS011;7630;50.306;8.566;2023-09-12T00:41:21;17.03;;;13.63;;
15061;SDS011;7630;50.306;8.566;2023-09-12T00:45:22;15.40;;;13.33;;
15061;SDS011;7630;50.306;8.566;2023-09-12T00:49:23;15.80;;;14.20;;
15061;SDS011;7630;50.306;8.566;2023-09-12T00:53:26;20.07;;;15.10;;
15061;SDS011;7630;50.306;8.566;2023-09-12T00:57:27;14.53;;;13.03;;
15061;SDS011;7630;50.306;8.566;2023-09-12T01:01:29;21.00;;;15.23;;
15061;SDS011;7630;50.306;8.566;2023-09-12T01:05:33;16.67;;;14.67;;
15061;SDS011;7630;50.306;8.566;2023-09-12T01:09:35;18.90;;;14.00;;
15061;SDS011;7630;50.306;8.566;2023-09-12T01:13:37;19.83;;;13.53;;
15061;SDS011;7630;50.306;8.566;2023-09-12T01:17:38;17.27;;;14.47;;
15061;SDS011;7630;50.306;8.566;2023-09-12T01:26:01;16.30;;;12.53;;
15061;SDS011;7630;50.306;8.566;2023-09-12T01:30:08;16.30;;;14.80;;
15061;SDS011;7630;50.306;8.566;2023-09-12T01:34:11;18.80;;;13.67;;
15061;SDS011;7630;50.306;8.566;2023-09-12T01:38:13;16.53;;;14.87;;
15061;SDS011;7630;50.306;8.566;2023-09-12T01:42:16;19.53;;;16.37;;
15061;SDS011;7630;50.306;8.566;2023-09-12T01:46:20;15.50;;;13.93;;
15061;SDS011;7630;50.306;8.566;2023-09-12T01:50:22;20.00;;;15.70;;
15061;SDS011;7630;50.306;8.566;2023-09-12T01:54:23;17.23;;;14.83;;
15061;SDS011;7630;50.306;8.566;2023-09-12T01:58:25;18.77;;;15.83;;
15061;SDS011;7630;50.306;8.566;2023-09-12T02:02:27;20.17;;;15.00;;
15061;SDS011;7630;50.306;8.566;2023-09-12T02:06:28;18.47;;;14.20;;
15061;SDS011;7630;50.306;8.566;2023-09-12T02:10:29;18.40;;;13.07;;
15061;SDS011;7630;50.306;8.566;2023-09-12T02:14:30;17.83;;;13.53;;
15061;SDS011;7630;50.306;8.566;2023-09-12T02:18:31;15.10;;;13.33;;
15061;SDS011;7630;50.306;8.566;2023-09-12T02:22:32;19.50;;;15.60;;
15061;SDS011;7630;50.306;8.566;2023-09-12T02:26:33;24.50;;;13.93;;
15061;SDS011;7630;50.306;8.566;2023-09-12T02:30:39;18.60;;;14.27;;
15061;SDS011;7630;50.306;8.566;2023-09-12T02:34:41;17.97;;;13.53;;
15061;SDS011;7630;50.306;8.566;2023-09-12T02:38:42;23.73;;;15.47;;
15061;SDS011;7630;50.306;8.566;2023-09-12T02:42:43;19.83;;;14.87;;
15061;SDS011;7630;50.306;8.566;2023-09-12T02:46:45;19.13;;;14.60;;
15061;SDS011;7630;50.306;8.566;2023-09-12T02:50:46;16.63;;;14.33;;
15061;SDS011;7630;50.306;8.566;2023-09-12T02:54:47;19.30;;;17.17;;
15061;SDS011;7630;50.306;8.566;2023-09-12T02:58:48;23.00;;;15.33;;
15061;SDS011;7630;50.306;8.566;2023-09-12T03:02:50;15.80;;;14.23;;
15061;SDS011;7630;50.306;8.566;2023-09-12T03:06:52;17.60;;;15.40;;
15061;SDS011;7630;50.306;8.566;2023-09-12T03:10:54;15.40;;;13.80;;
15061;SDS011;7630;50.306;8.566;2023-09-12T03:14:56;17.37;;;14.03;;
15061;SDS011;7630;50.306;8.566;2023-09-12T03:18:57;14.77;;;13.53;;
15061;SDS011;7630;50.306;8.566;2023-09-12T03:22:59;18.97;;;15.87;;
15061;SDS011;7630;50.306;8.566;2023-09-12T03:27:00;19.17;;;16.40;;
15061;SDS011;7630;50.306;8.566;2023-09-12T03:31:08;19.70;;;17.47;;
15061;SDS011;7630;50.306;8.566;2023-09-12T03:35:15;17.77;;;16.27;;
15061;SDS011;7630;50.306;8.566;2023-09-12T03:39:16;23.87;;;17.23;;
15061;SDS011;7630;50.306;8.566;2023-09-12T03:43:17;19.97;;;14.87;;
15061;SDS011;7630;50.306;8.566;2023-09-12T03:47:18;16.90;;;14.13;;
15061;SDS011;7630;50.306;8.566;2023-09-12T03:51:19;18.30;;;16.07;;
15061;SDS011;7630;50.306;8.566;2023-09-12T03:55:20;20.87;;;15.77;;
15061;SDS011;7630;50.306;8.566;2023-09-12T03:59:22;18.57;;;15.73;;
15061;SDS011;7630;50.306;8.566;2023-09-12T04:03:23;22.83;;;15.93;;
15061;SDS011;7630;50.306;8.566;2023-09-12T04:07:24;19.80;;;15.60;;
15061;SDS011;7630;50.306;8.566;2023-09-12T04:11:25;17.43;;;15.50;;
15061;SDS011;7630;50.306;8.566;2023-09-12T04:15:28;19.83;;;14.87;;
15061;SDS011;7630;50.306;8.566;2023-09-12T04:19:30;17.47;;;14.20;;
15061;SDS011;7630;50.306;8.566;2023-09-12T04:23:32;20.80;;;15.30;;
15061;SDS011;7630;50.306;8.566;2023-09-12T04:27:33;16.77;;;14.70;;
15061;SDS011;7630;50.306;8.566;2023-09-12T04:31:35;14.60;;;13.13;;
15061;SDS011;7630;50.306;8.566;2023-09-12T04:35:36;16.87;;;14.00;;
15061;SDS011;7630;50.306;8.566;2023-09-12T04:39:37;14.87;;;13.57;;
15061;SDS011;7630;50.306;8.566;2023-09-12T04:43:38;18.77;;;14.60;;
15061;SDS011;7630;50.306;8.566;2023-09-12T04:47:40;19.93;;;17.27;;
15061;SDS011;7630;50.306;8.566;2023-09-12T04:51:41;19.63;;;16.70;;
15061;SDS011;7630;50.306;8.566;2023-09-12T04:55:43;15.03;;;13.70;;
15061;SDS011;7630;50.306;8.566;2023-09-12T04:59:44;19.17;;;17.23;;
15061;SDS011;7630;50.306;8.566;2023-09-12T05:03:46;23.27;;;15.20;;
15061;SDS011;7630;50.306;8.566;2023-09-12T05:07:47;24.10;;;16.33;;
15061;SDS011;7630;50.306;8.566;2023-09-12T05:11:48;21.97;;;15.47;;
15061;SDS011;7630;50.306;8.566;2023-09-12T05:15:49;17.20;;;15.50;;
15061;SDS011;7630;50.306;8.566;2023-09-12T05:19:51;19.30;;;17.40;;
15061;SDS011;7630;50.306;8.566;2023-09-12T05:23:52;20.33;;;18.30;;
15061;SDS011;7630;50.306;8.566;2023-09-12T05:27:54;17.90;;;16.30;;
15061;SDS011;7630;50.306;8.566;2023-09-12T05:31:55;27.73;;;20.07;;
15061;SDS011;7630;50.306;8.566;2023-09-12T05:35:56;24.67;;;21.83;;
15061;SDS011;7630;50.306;8.566;2023-09-12T05:39:57;25.30;;;19.60;;
15061;SDS011;7630;50.306;8.566;2023-09-12T05:43:59;21.27;;;19.33;;
15061;SDS011;7630;50.306;8.566;2023-09-12T05:48:00;23.23;;;19.50;;
15061;SDS011;7630;50.306;8.566;2023-09-12T05:52:02;21.80;;;17.93;;
15061;SDS011;7630;50.306;8.566;2023-09-12T05:56:03;18.77;;;15.73;;
15061;SDS011;7630;50.306;8.566;2023-09-12T06:00:04;20.50;;;17.17;;
15061;SDS011;7630;50.306;8.566;2023-09-12T06:04:06;20.43;;;18.37;;
15061;SDS011;7630;50.306;8.566;2023-09-12T06:08:07;20.57;;;14.97;;
15061;SDS011;7630;50.306;8.566;2023-09-12T06:12:09;20.87;;;14.43;;
15061;SDS011;7630;50.306;8.566;2023-09-12T06:16:10;23.93;;;15.57;;
15061;SDS011;7630;50.306;8.566;2023-09-12T06:20:11;17.27;;;14.53;;
15061;SDS011;7630;50.306;8.566;2023-09-12T06:24:13;20.33;;;15.80;;
15061;SDS011;7630;50.306;8.566;2023-09-12T06:28:30;24.87;;;17.73;;
15061;SDS011;7630;50.306;8.566;2023-09-12T06:32:29;20.70;;;17.00;;
15061;SDS011;7630;50.306;8.566;2023-09-12T06:36:30;24.37;;;18.23;;
15061;SDS011;7630;50.306;8.566;2023-09-12T06:40:32;18.80;;;16.53;;
15061;SDS011;7630;50.306;8.566;2023-09-12T06:44:33;15.83;;;14.30;;
15061;SDS011;7630;50.306;8.566;2023-09-12T06:48:34;15.50;;;13.90;;
15061;SDS011;7630;50.306;8.566;2023-09-12T06:52:35;15.37;;;13.70;;
15061;SDS011;7630;50.306;8.566;2023-09-12T06:56:36;15.77;;;14.07;;
15061;SDS011;7630;50.306;8.566;2023-09-12T07:00:39;17.70;;;14.33;;
15061;SDS011;7630;50.306;8.566;2023-09-12T07:04:40;18.80;;;14.23;;
15061;SDS011;7630;50.306;8.566;2023-09-12T07:08:41;16.27;;;14.83;;
15061;SDS011;7630;50.306;8.566;2023-09-12T07:12:42;19.33;;;15.10;;
15061;SDS011;7630;50.306;8.566;2023-09-12T07:16:43;15.83;;;14.17;;
15061;SDS011;7630;50.306;8.566;2023-09-12T07:20:45;24.00;;;13.73;;
15061;SDS011;7630;50.306;8.566;2023-09-12T07:24:46;19.43;;;14.13;;
15061;SDS011;7630;50.306;8.566;2023-09-12T07:28:47;13.60;;;11.83;;
15061;SDS011;7630;50.306;8.566;2023-09-12T07:32:48;20.37;;;12.80;;
15061;SDS011;7630;50.306;8.566;2023-09-12T07:36:50;18.83;;;13.70;;
15061;SDS011;7630;50.306;8.566;2023-09-12T07:40:52;21.63;;;13.83;;
15061;SDS011;7630;50.306;8.566;2023-09-12T07:44:53;20.10;;;12.53;;
15061;SDS011;7630;50.306;8.566;2023-09-12T07:48:54;17.67;;;13.13;;
15061;SDS011;7630;50.306;8.566;2023-09-12T07:52:55;19.40;;;11.80;;
15061;SDS011;7630;50.306;8.566;2023-09-12T07:56:58;15.50;;;11.23;;
15061;SDS011;7630;50.306;8.566;2023-09-12T08:00:59;19.23;;;9.73;;
15061;SDS011;7630;50.306;8.566;2023-09-12T08:05:00;15.80;;;10.27;;
15061;SDS011;7630;50.306;8.566;2023-09-12T08:09:01;22.77;;;10.47;;
15061;SDS011;7630;50.306;8.566;2023-09-12T08:13:02;13.87;;;8.63;;
15061;SDS011;7630;50.306;8.566;2023-09-12T08:17:04;30.00;;;10.77;;
15061;SDS011;7630;50.306;8.566;2023-09-12T08:21:05;19.37;;;11.83;;
15061;SDS011;7630;50.306;8.566;2023-09-12T08:25:06;14.17;;;8.83;;
15061;SDS011;7630;50.306;8.566;2023-09-12T08:29:08;12.30;;;8.30;;
15061;SDS011;7630;50.306;8.566;2023-09-12T08:33:09;15.37;;;8.83;;
15061;SDS011;7630;50.306;8.566;2023-09-12T08:37:10;9.47;;;8.30;;
15061;SDS011;7630;50.306;8.566;2023-09-12T08:41:11;12.60;;;8.67;;
15061;SDS011;7630;50.306;8.566;2023-09-12T08:45:13;11.57;;;8.73;;
15061;SDS011;7630;50.306;8.566;2023-09-12T08:49:16;14.77;;;8.80;;
15061;SDS011;7630;50.306;8.566;2023-09-12T08:53:17;11.37;;;7.87;;
15061;SDS011;7630;50.306;8.566;2023-09-12T08:57:20;14.87;;;8.27;;
15061;SDS011;7630;50.306;8.566;2023-09-12T09:01:22;12.23;;;9.37;;
15061;SDS011;7630;50.306;8.566;2023-09-12T09:05:24;15.67;;;8.00;;
15061;SDS011;7630;50.306;8.566;2023-09-12T09:09:26;24.40;;;9.33;;
15061;SDS011;7630;50.306;8.566;2023-09-12T09:13:32;14.97;;;9.23;;
15061;SDS011;7630;50.306;8.566;2023-09-12T09:17:33;13.73;;;8.20;;
15061;SDS011;7630;50.306;8.566;2023-09-12T09:21:37;16.10;;;8.50;;
15061;SDS011;7630;50.306;8.566;2023-09-12T09:25:41;17.03;;;8.53;;
15061;SDS011;7630;50.306;8.566;2023-09-12T09:29:47;22.60;;;10.10;;
15061;SDS011;7630;50.306;8.566;2023-09-12T09:33:49;17.07;;;9.50;;
15061;SDS011;7630;50.306;8.566;2023-09-12T09:37:52;16.10;;;9.57;;
15061;SDS011;7630;50.306;8.566;2023-09-12T09:41:53;18.37;;;8.30;;
15061;SDS011;7630;50.306;8.566;2023-09-12T09:45:56;20.30;;;9.60;;
15061;SDS011;7630;50.306;8.566;2023-09-12T09:49:57;19.83;;;8.80;;
15061;SDS011;7630;50.306;8.566;2023-09-12T09:54:00;15.37;;;8.50;;
15061;SDS011;7630;50.306;8.566;2023-09-12T09:58:02;13.17;;;6.83;;
15061;SDS011;7630;50.306;8.566;2023-09-12T10:02:04;15.93;;;8.17;;
15061;SDS011;7630;50.306;8.566;2023-09-12T10:06:10;12.43;;;7.80;;
15061;SDS011;7630;50.306;8.566;2023-09-12T10:10:11;10.87;;;7.60;;
15061;SDS011;7630;50.306;8.566;2023-09-12T10:14:14;19.17;;;9.90;;
15061;SDS011;7630;50.306;8.566;2023-09-12T10:18:18;15.70;;;7.53;;
15061;SDS011;7630;50.306;8.566;2023-09-12T10:26:43;50.37;;;13.30;;
15061;SDS011;7630;50.306;8.566;2023-09-12T10:30:45;17.67;;;8.80;;
15061;SDS011;7630;50.306;8.566;2023-09-12T10:34:47;11.27;;;7.80;;
15061;SDS011;7630;50.306;8.566;2023-09-12T10:38:50;10.97;;;7.43;;
15061;SDS011;7630;50.306;8.566;2023-09-12T10:42:51;12.83;;;8.67;;
15061;SDS011;7630;50.306;8.566;2023-09-12T10:46:55;10.90;;;7.97;;
15061;SDS011;7630;50.306;8.566;2023-09-12T10:50:58;19.17;;;8.20;;
15061;SDS011;7630;50.306;8.566;2023-09-12T10:55:03;18.50;;;7.97;;
15061;SDS011;7630;50.306;8.566;2023-09-12T11:11:42;15.63;;;8.77;;
15061;SDS011;7630;50.306;8.566;2023-09-12T11:20:17;11.13;;;8.50;;
15061;SDS011;7630;50.306;8.566;2023-09-12T11:24:19;11.37;;;7.87;;
15061;SDS011;7630;50.306;8.566;2023-09-12T11:28:21;14.53;;;8.60;;
15061;SDS011;7630;50.306;8.566;2023-09-12T11:32:27;19.90;;;8.17;;
15061;SDS011;7630;50.306;8.566;2023-09-12T11:36:30;12.73;;;8.33;;
15061;SDS011;7630;50.306;8.566;2023-09-12T11:44:39;19.80;;;10.63;;
15061;SDS011;7630;50.306;8.566;2023-09-12T11:48:42;11.17;;;8.40;;
15061;SDS011;7630;50.306;8.566;2023-09-12T11:52:43;16.40;;;8.23;;
15061;SDS011;7630;50.306;8.566;2023-09-12T11:56:44;12.03;;;7.87;;
15061;SDS011;7630;50.306;8.566;2023-09-12T12:00:48;12.20;;;9.23;;
15061;SDS011;7630;50.306;8.566;2023-09-12T12:04:52;12.47;;;8.93;;
15061;SDS011;7630;50.306;8.566;2023-09-12T12:08:55;14.27;;;9.57;;
15061;SDS011;7630;50.306;8.566;2023-09-12T12:12:56;14.43;;;9.30;;
15061;SDS011;7630;50.306;8.566;2023-09-12T12:16:57;15.00;;;8.53;;
15061;SDS011;7630;50.306;8.566;2023-09-12T12:21:02;14.10;;;8.90;;
15061;SDS011;7630;50.306;8.566;2023-09-12T12:25:10;12.07;;;9.07;;
15061;SDS011;7630;50.306;8.566;2023-09-12T12:29:12;16.70;;;8.90;;
15061;SDS011;7630;50.306;8.566;2023-09-12T12:33:14;12.87;;;8.93;;
15061;SDS011;7630;50.306;8.566;2023-09-12T12:37:17;16.47;;;8.87;;
15061;SDS011;7630;50.306;8.566;2023-09-12T12:41:29;9.90;;;8.60;;
15061;SDS011;7630;50.306;8.566;2023-09-12T12:45:31;13.07;;;9.10;;
15061;SDS011;7630;50.306;8.566;2023-09-12T12:49:35;10.53;;;8.33;;
15061;SDS011;7630;50.306;8.566;2023-09-12T12:53:40;12.80;;;9.00;;
15061;SDS011;7630;50.306;8.566;2023-09-12T12:57:44;11.23;;;8.23;;
15061;SDS011;7630;50.306;8.566;2023-09-12T13:01:46;13.77;;;9.60;;
15061;SDS011;7630;50.306;8.566;2023-09-12T13:05:47;15.25;;;9.20;;
15061;SDS011;7630;50.306;8.566;2023-09-12T13:09:48;13.87;;;9.33;;
15061;SDS011;7630;50.306;8.566;2023-09-12T13:13:49;11.63;;;9.13;;
15061;SDS011;7630;50.306;8.566;2023-09-12T13:17:51;13.17;;;8.60;;
15061;SDS011;7630;50.306;8.566;2023-09-12T13:21:52;10.83;;;8.60;;
15061;SDS011;7630;50.306;8.566;2023-09-12T13:25:53;10.57;;;8.87;;
15061;SDS011;7630;50.306;8.566;2023-09-12T13:29:55;13.40;;;8.67;;
15061;SDS011;7630;50.306;8.566;2023-09-12T13:33:59;9.33;;;8.43;;
15061;SDS011;7630;50.306;8.566;2023-09-12T13:38:00;18.57;;;10.07;;
15061;SDS011;7630;50.306;8.566;2023-09-12T13:42:01;10.33;;;8.77;;
15061;SDS011;7630;50.306;8.566;2023-09-12T13:46:04;25.70;;;10.33;;
15061;SDS011;7630;50.306;8.566;2023-09-12T13:50:06;15.37;;;8.77;;
15061;SDS011;7630;50.306;8.566;2023-09-12T13:54:07;16.33;;;9.53;;
15061;SDS011;7630;50.306;8.566;2023-09-12T13:58:10;13.57;;;9.63;;
15061;SDS011;7630;50.306;8.566;2023-09-12T14:02:12;11.53;;;8.57;;
15061;SDS011;7630;50.306;8.566;2023-09-12T14:06:14;12.47;;;9.97;;
15061;SDS011;7630;50.306;8.566;2023-09-12T14:10:15;11.83;;;9.67;;
15061;SDS011;7630;50.306;8.566;2023-09-12T14:14:18;14.03;;;9.77;;
15061;SDS011;7630;50.306;8.566;2023-09-12T14:18:21;11.07;;;10.00;;
15061;SDS011;7630;50.306;8.566;2023-09-12T14:22:24;15.93;;;11.00;;
15061;SDS011;7630;50.306;8.566;2023-09-12T14:26:26;13.67;;;9.97;;
15061;SDS011;7630;50.306;8.566;2023-09-12T14:30:27;17.73;;;10.27;;
15061;SDS011;7630;50.306;8.566;2023-09-12T14:34:30;18.67;;;11.60;;
15061;SDS011;7630;50.306;8.566;2023-09-12T14:38:35;18.77;;;10.13;;
15061;SDS011;7630;50.306;8.566;2023-09-12T14:42:36;13.87;;;10.30;;
15061;SDS011;7630;50.306;8.566;2023-09-12T14:46:37;17.20;;;10.37;;
15061;SDS011;7630;50.306;8.566;2023-09-12T14:50:39;15.63;;;8.90;;
15061;SDS011;7630;50.306;8.566;2023-09-12T14:54:42;15.47;;;10.60;;
15061;SDS011;7630;50.306;8.566;2023-09-12T14:58:43;11.83;;;10.53;;
15061;SDS011;7630;50.306;8.566;2023-09-12T15:02:44;22.03;;;10.57;;
15061;SDS011;7630;50.306;8.566;2023-09-12T15:06:46;18.90;;;9.80;;
15061;SDS011;7630;50.306;8.566;2023-09-12T15:10:47;15.87;;;10.40;;
15061;SDS011;7630;50.306;8.566;2023-09-12T15:14:49;20.23;;;11.60;;
15061;SDS011;7630;50.306;8.566;2023-09-12T15:18:52;11.87;;;10.07;;
15061;SDS011;7630;50.306;8.566;2023-09-12T15:22:53;13.33;;;10.53;;
15061;SDS011;7630;50.306;8.566;2023-09-12T15:26:55;14.83;;;10.70;;
15061;SDS011;7630;50.306;8.566;2023-09-12T15:30:56;14.07;;;11.07;;
15061;SDS011;7630;50.306;8.566;2023-09-12T15:34:57;19.00;;;11.00;;
15061;SDS011;7630;50.306;8.566;2023-09-12T15:39:00;15.07;;;12.13;;
15061;SDS011;7630;50.306;8.566;2023-09-12T15:43:02;17.87;;;12.13;;
15061;SDS011;7630;50.306;8.566;2023-09-12T15:47:07;13.37;;;11.27;;
15061;SDS011;7630;50.306;8.566;2023-09-12T15:51:10;18.07;;;11.03;;
15061;SDS011;7630;50.306;8.566;2023-09-12T15:55:11;16.10;;;12.60;;
15061;SDS011;7630;50.306;8.566;2023-09-12T15:59:12;15.50;;;11.40;;
15061;SDS011;7630;50.306;8.566;2023-09-12T16:03:13;15.60;;;12.07;;
15061;SDS011;7630;50.306;8.566;2023-09-12T16:07:15;16.73;;;11.83;;
15061;SDS011;7630;50.306;8.566;2023-09-12T16:11:16;13.37;;;11.23;;
15061;SDS011;7630;50.306;8.566;2023-09-12T16:15:17;16.73;;;12.43;;
15061;SDS011;7630;50.306;8.566;2023-09-12T16:19:18;18.13;;;10.97;;
15061;SDS011;7630;50.306;8.566;2023-09-12T16:23:20;23.47;;;12.17;;
15061;SDS011;7630;50.306;8.566;2023-09-12T16:27:21;13.60;;;10.57;;
15061;SDS011;7630;50.306;8.566;2023-09-12T16:31:23;16.90;;;13.17;;
15061;SDS011;7630;50.306;8.566;2023-09-12T16:35:24;14.53;;;12.97;;
15061;SDS011;7630;50.306;8.566;2023-09-12T16:39:25;15.70;;;11.83;;
15061;SDS011;7630;50.306;8.566;2023-09-12T16:43:26;13.67;;;12.33;;
15061;SDS011;7630;50.306;8.566;2023-09-12T16:47:28;19.63;;;12.27;;
15061;SDS011;7630;50.306;8.566;2023-09-12T16:51:29;17.23;;;12.77;;
15061;SDS011;7630;50.306;8.566;2023-09-12T16:55:30;14.80;;;13.30;;
15061;SDS011;7630;50.306;8.566;2023-09-12T16:59:31;14.57;;;12.80;;
15061;SDS011;7630;50.306;8.566;2023-09-12T17:03:33;13.87;;;10.77;;
15061;SDS011;7630;50.306;8.566;2023-09-12T17:07:34;16.90;;;12.67;;
15061;SDS011;7630;50.306;8.566;2023-09-12T17:11:35;16.53;;;13.17;;
15061;SDS011;7630;50.306;8.566;2023-09-12T17:15:37;18.73;;;11.90;;
15061;SDS011;7630;50.306;8.566;2023-09-12T17:19:38;19.13;;;12.70;;
15061;SDS011;7630;50.306;8.566;2023-09-12T17:23:39;15.80;;;12.77;;
15061;SDS011;7630;50.306;8.566;2023-09-12T17:27:41;16.63;;;13.47;;
15061;SDS011;7630;50.306;8.566;2023-09-12T17:31:43;17.37;;;13.13;;
15061;SDS011;7630;50.306;8.566;2023-09-12T17:35:44;14.00;;;12.17;;
15061;SDS011;7630;50.306;8.566;2023-09-12T17:39:45;16.03;;;13.57;;
15061;SDS011;7630;50.306;8.566;2023-09-12T17:43:46;16.27;;;13.60;;
15061;SDS011;7630;50.306;8.566;2023-09-12T17:47:47;15.40;;;13.90;;
15061;SDS011;7630;50.306;8.566;2023-09-12T17:51:48;15.30;;;13.30;;
15061;SDS011;7630;50.306;8.566;2023-09-12T17:55:50;15.33;;;13.73;;
15061;SDS011;7630;50.306;8.566;2023-09-12T17:59:53;16.67;;;13.70;;
15061;SDS011;7630;50.306;8.566;2023-09-12T18:03:56;20.53;;;14.17;;
15061;SDS011;7630;50.306;8.566;2023-09-12T18:07:57;15.13;;;13.63;;
15061;SDS011;7630;50.306;8.566;2023-09-12T18:11:58;14.97;;;13.40;;
15061;SDS011;7630;50.306;8.566;2023-09-12T18:15:59;18.20;;;15.33;;
15061;SDS011;7630;50.306;8.566;2023-09-12T18:20:01;16.50;;;14.47;;
15061;SDS011;7630;50.306;8.566;2023-09-12T18:24:04;21.83;;;15.30;;
15061;SDS011;7630;50.306;8.566;2023-09-12T18:28:05;17.40;;;15.90;;
15061;SDS011;7630;50.306;8.566;2023-09-12T18:32:07;21.20;;;16.60;;
15061;SDS011;7630;50.306;8.566;2023-09-12T18:36:08;19.83;;;17.03;;
15061;SDS011;7630;50.306;8.566;2023-09-12T18:40:10;19.23;;;17.17;;
15061;SDS011;7630;50.306;8.566;2023-09-12T18:44:12;24.00;;;18.73;;
15061;SDS011;7630;50.306;8.566;2023-09-12T18:48:13;24.80;;;16.33;;
15061;SDS011;7630;50.306;8.566;2023-09-12T18:52:14;17.10;;;15.60;;
15061;SDS011;7630;50.306;8.566;2023-09-12T18:56:15;18.73;;;17.07;;
15061;SDS011;7630;50.306;8.566;2023-09-12T19:00:16;19.93;;;17.67;;
15061;SDS011;7630;50.306;8.566;2023-09-12T19:04:24;23.43;;;20.90;;
15061;SDS011;7630;50.306;8.566;2023-09-12T19:08:27;24.10;;;21.63;;
15061;SDS011;7630;50.306;8.566;2023-09-12T19:12:28;27.90;;;24.33;;
15061;SDS011;7630;50.306;8.566;2023-09-12T19:16:29;28.40;;;25.03;;
15061;SDS011;7630;50.306;8.566;2023-09-12T19:20:31;31.47;;;28.23;;
15061;SDS011;7630;50.306;8.566;2023-09-12T19:24:32;28.40;;;25.40;;
15061;SDS011;7630;50.306;8.566;2023-09-12T19:28:33;18.00;;;16.10;;
15061;SDS011;7630;50.306;8.566;2023-09-12T19:32:34;21.53;;;19.23;;
15061;SDS011;7630;50.306;8.566;2023-09-12T19:36:36;45.40;;;23.27;;
15061;SDS011;7630;50.306;8.566;2023-09-12T19:40:38;14.43;;;12.77;;
15061;SDS011;7630;50.306;8.566;2023-09-12T19:44:41;24.40;;;10.33;;
15061;SDS011;7630;50.306;8.566;2023-09-12T19:48:44;51.10;;;10.37;;
15061;SDS011;7630;50.306;8.566;2023-09-12T19:52:45;36.20;;;11.77;;
15061;SDS011;7630;50.306;8.566;2023-09-12T19:56:46;14.77;;;13.27;;
15061;SDS011;7630;50.306;8.566;2023-09-12T20:00:47;23.97;;;16.27;;
15061;SDS011;7630;50.306;8.566;2023-09-12T20:04:51;15.53;;;13.93;;
15061;SDS011;7630;50.306;8.566;2023-09-12T20:08:52;14.07;;;11.60;;
15061;SDS011;7630;50.306;8.566;2023-09-12T20:12:54;10.63;;;9.60;;
15061;SDS011;7630;50.306;8.566;2023-09-12T20:16:55;7.63;;;6.93;;
15061;SDS011;7630;50.306;8.566;2023-09-12T20:20:56;9.53;;;8.53;;
15061;SDS011;7630;50.306;8.566;2023-09-12T20:24:58;11.20;;;10.13;;
15061;SDS011;7630;50.306;8.566;2023-09-12T20:29:00;10.97;;;9.07;;
15061;SDS011;7630;50.306;8.566;2023-09-12T20:33:02;10.37;;;9.37;;
15061;SDS011;7630;50.306;8.566;2023-09-12T20:37:04;14.47;;;11.13;;
15061;SDS011;7630;50.306;8.566;2023-09-12T20:41:05;15.33;;;12.30;;
15061;SDS011;7630;50.306;8.566;2023-09-12T20:45:06;15.03;;;13.67;;
15061;SDS011;7630;50.306;8.566;2023-09-12T20:49:08;13.83;;;12.37;;
15061;SDS011;7630;50.306;8.566;2023-09-12T20:53:09;14.50;;;12.03;;
15061;SDS011;7630;50.306;8.566;2023-09-12T20:57:12;15.63;;;12.60;;
15061;SDS011;7630;50.306;8.566;2023-09-12T21:01:13;16.47;;;13.37;;
15061;SDS011;7630;50.306;8.566;2023-09-12T21:05:15;18.17;;;15.70;;
15061;SDS011;7630;50.306;8.566;2023-09-12T21:09:16;18.07;;;16.27;;
15061;SDS011;7630;50.306;8.566;2023-09-12T21:13:17;19.40;;;17.40;;
15061;SDS011;7630;50.306;8.566;2023-09-12T21:17:20;19.87;;;17.57;;
15061;SDS011;7630;50.306;8.566;2023-09-12T21:21:23;23.17;;;17.13;;
15061;SDS011;7630;50.306;8.566;2023-09-12T21:25:24;20.97;;;18.73;;
15061;SDS011;7630;50.306;8.566;2023-09-12T21:29:25;22.43;;;19.70;;
15061;SDS011;7630;50.306;8.566;2023-09-12T21:33:27;23.40;;;19.53;;
15061;SDS011;7630;50.306;8.566;2023-09-12T21:37:28;26.93;;;20.20;;
15061;SDS011;7630;50.306;8.566;2023-09-12T21:41:31;21.20;;;19.07;;
15061;SDS011;7630;50.306;8.566;2023-09-12T21:45:32;22.37;;;20.00;;
15061;SDS011;7630;50.306;8.566;2023-09-12T21:49:34;23.10;;;20.77;;
15061;SDS011;7630;50.306;8.566;2023-09-12T21:53:35;22.07;;;19.83;;
15061;SDS011;7630;50.306;8.566;2023-09-12T21:57:37;18.63;;;16.87;;
15061;SDS011;7630;50.306;8.566;2023-09-12T22:01:38;21.97;;;19.73;;
15061;SDS011;7630;50.306;8.566;2023-09-12T22:05:40;23.50;;;21.07;;
15061;SDS011;7630;50.306;8.566;2023-09-12T22:09:41;14.70;;;13.33;;
15061;SDS011;7630;50.306;8.566;2023-09-12T22:13:42;16.23;;;14.77;;
15061;SDS011;7630;50.306;8.566;2023-09-12T22:17:44;16.57;;;14.90;;
15061;SDS011;7630;50.306;8.566;2023-09-12T22:21:46;17.57;;;15.90;;
15061;SDS011;7630;50.306;8.566;2023-09-12T22:25:47;17.77;;;15.47;;
15061;SDS011;7630;50.306;8.566;2023-09-12T22:29:48;19.20;;;17.03;;
15061;SDS011;7630;50.306;8.566;2023-09-12T22:33:50;18.60;;;16.90;;
15061;SDS011;7630;50.306;8.566;2023-09-12T22:37:51;18.30;;;16.70;;
15061;SDS011;7630;50.306;8.566;2023-09-12T22:41:52;15.90;;;14.50;;
15061;SDS011;7630;50.306;8.566;2023-09-12T22:45:54;16.87;;;15.07;;
15061;SDS011;7630;50.306;8.566;2023-09-12T22:49:56;16.00;;;13.13;;
15061;SDS011;7630;50.306;8.566;2023-09-12T22:53:59;12.77;;;11.67;;
15061;SDS011;7630;50.306;8.566;2023-09-12T22:58:00;17.10;;;15.10;;
15061;SDS011;7630;50.306;8.566;2023-09-12T23:02:01;16.67;;;14.63;;
15061;SDS011;7630;50.306;8.566;2023-09-12T23:06:03;23.33;;;18.00;;
15061;SDS011;7630;50.306;8.566;2023-09-12T23:10:04;21.97;;;17.17;;
15061;SDS011;7630;50.306;8.566;2023-09-12T23:14:06;17.23;;;15.53;;
15061;SDS011;7630;50.306;8.566;2023-09-12T23:18:08;16.30;;;14.63;;
15061;SDS011;7630;50.306;8.566;2023-09-12T23:22:11;21.17;;;15.27;;
15061;SDS011;7630;50.306;8.566;2023-09-12T23:26:12;14.30;;;12.90;;
15061;SDS011;7630;50.306;8.566;2023-09-12T23:30:14;14.53;;;13.23;;
15061;SDS011;7630;50.306;8.566;2023-09-12T23:34:15;13.57;;;12.27;;
15061;SDS011;7630;50.306;8.566;2023-09-12T23:38:16;15.83;;;13.67;;
15061;SDS011;7630;50.306;8.566;2023-09-12T23:42:18;21.53;;;15.10;;
15061;SDS011;7630;50.306;8.566;2023-09-12T23:46:24;13.40;;;12.20;;
15061;SDS011;7630;50.306;8.566;2023-09-12T23:50:25;13.30;;;12.20;;
15061;SDS011;7630;50.306;8.566;2023-09-12T23:54:26;13.10;;;11.97;;
15061;SDS011;7630;50.306;8.566;2023-09-12T23:58:27;16.90;;;15.10;;
